sensor_id;sensor_type;location;lat;lon;timestamp;pressure;altitude;pressure_sealevel;temperature;humidity
8280;BME280;8335;42.646;23.380;2022-12-07T00:01:47;94359.44;;;5.28;100.00
8280;BME280;8335;42.646;23.380;2022-12-07T00:04:16;94362.78;;;5.29;100.00
8280;BME280;8335;42.646;23.380;2022-12-07T00:06:46;94351.78;;;5.31;100.00
8280;BME280;8335;42.646;23.380;2022-12-07T00:09:15;94336.94;;;5.22;100.00
8280;BME280;8335;42.646;23.380;2022-12-07T00:11:42;94355.69;;;5.40;100.00
8280;BME280;8335;42.646;23.380;2022-12-07T00:14:13;94348.47;;;5.29;100.00
8280;BME280;8335;42.646;23.380;2022-12-07T00:16:40;94351.66;;;5.34;100.00
8280;BME280;8335;42.646;23.380;2022-12-07T00:19:09;94349.94;;;5.35;100.00
8280;BME280;8335;42.646;23.380;2022-12-07T00:21:36;94347.59;;;5.30;100.00
8280;BME280;8335;42.646;23.380;2022-12-07T00:24:05;94341.88;;;5.25;100.00
8280;BME280;8335;42.646;23.380;2022-12-07T00:26:33;94344.25;;;5.30;100.00
8280;BME280;8335;42.646;23.380;2022-12-07T00:29:03;94350.78;;;5.35;100.00
8280;BME280;8335;42.646;23.380;2022-12-07T00:31:32;94346.59;;;5.34;100.00
8280;BME280;8335;42.646;23.380;2022-12-07T00:34:01;94337.38;;;5.33;100.00
8280;BME280;8335;42.646;23.380;2022-12-07T00:36:28;94343.19;;;5.35;100.00
8280;BME280;8335;42.646;23.380;2022-12-07T00:38:58;94349.91;;;5.36;100.00
8280;BME280;8335;42.646;23.380;2022-12-07T00:41:27;94340.06;;;5.29;100.00
8280;BME280;8335;42.646;23.380;2022-12-07T00:43:54;94356.66;;;5.36;100.00
8280;BME280;8335;42.646;23.380;2022-12-07T00:46:21;94345.91;;;5.31;100.00
8280;BME280;8335;42.646;23.380;2022-12-07T00:48:50;94345.03;;;5.32;100.00
8280;BME280;8335;42.646;23.380;2022-12-07T00:51:19;94244.28;;;4.76;100.00
8280;BME280;8335;42.646;23.380;2022-12-07T00:53:46;94332.28;;;5.35;100.00
8280;BME280;8335;42.646;23.380;2022-12-07T00:56:14;94332.34;;;5.33;100.00
8280;BME280;8335;42.646;23.380;2022-12-07T00:58:43;94320.03;;;5.24;100.00
8280;BME280;8335;42.646;23.380;2022-12-07T01:01:11;94328.31;;;5.28;100.00
8280;BME280;8335;42.646;23.380;2022-12-07T01:03:38;94339.75;;;5.38;100.00
8280;BME280;8335;42.646;23.380;2022-12-07T01:06:05;94339.72;;;5.39;100.00
8280;BME280;8335;42.646;23.380;2022-12-07T01:08:33;94333.00;;;5.38;100.00
8280;BME280;8335;42.646;23.380;2022-12-07T01:11:02;94329.75;;;5.35;100.00
8280;BME280;8335;42.646;23.380;2022-12-07T01:13:29;94341.22;;;5.45;100.00
8280;BME280;8335;42.646;23.380;2022-12-07T01:15:59;94336.03;;;5.48;100.00
8280;BME280;8335;42.646;23.380;2022-12-07T01:18:26;94329.22;;;5.50;100.00
8280;BME280;8335;42.646;23.380;2022-12-07T01:21:01;94333.44;;;5.49;100.00
8280;BME280;8335;42.646;23.380;2022-12-07T01:23:28;94319.31;;;5.45;100.00
8280;BME280;8335;42.646;23.380;2022-12-07T01:25:56;94324.84;;;5.55;100.00
8280;BME280;8335;42.646;23.380;2022-12-07T01:28:23;94327.38;;;5.55;100.00
8280;BME280;8335;42.646;23.380;2022-12-07T01:30:59;94324.75;;;5.58;100.00
8280;BME280;8335;42.646;23.380;2022-12-07T01:33:27;94321.41;;;5.58;100.00
8280;BME280;8335;42.646;23.380;2022-12-07T01:35:55;94323.88;;;5.59;100.00
8280;BME280;8335;42.646;23.380;2022-12-07T01:38:26;94318.91;;;5.56;100.00
8280;BME280;8335;42.646;23.380;2022-12-07T01:40:54;94309.09;;;5.48;100.00
8280;BME280;8335;42.646;23.380;2022-12-07T01:43:22;94314.94;;;5.50;100.00
8280;BME280;8335;42.646;23.380;2022-12-07T01:45:50;94316.50;;;5.53;100.00
8280;BME280;8335;42.646;23.380;2022-12-07T01:48:20;94325.06;;;5.49;100.00
8280;BME280;8335;42.646;23.380;2022-12-07T01:50:50;94320.13;;;5.46;100.00
8280;BME280;8335;42.646;23.380;2022-12-07T01:53:18;94323.31;;;5.51;100.00
8280;BME280;8335;42.646;23.380;2022-12-07T01:55:49;94316.56;;;5.51;100.00
8280;BME280;8335;42.646;23.380;2022-12-07T01:58:17;94309.09;;;5.48;100.00
8280;BME280;8335;42.646;23.380;2022-12-07T02:00:44;94316.72;;;5.47;100.00
8280;BME280;8335;42.646;23.380;2022-12-07T02:03:14;94307.56;;;5.44;100.00
8280;BME280;8335;42.646;23.380;2022-12-07T02:05:44;94299.94;;;5.46;100.00
8280;BME280;8335;42.646;23.380;2022-12-07T02:08:13;94298.44;;;5.40;100.00
8280;BME280;8335;42.646;23.380;2022-12-07T02:10:40;94299.19;;;5.42;100.00
8280;BME280;8335;42.646;23.380;2022-12-07T02:13:10;94289.06;;;5.44;100.00
8280;BME280;8335;42.646;23.380;2022-12-07T02:15:51;94289.06;;;5.44;100.00
8280;BME280;8335;42.646;23.380;2022-12-07T02:18:25;94298.38;;;5.42;100.00
8280;BME280;8335;42.646;23.380;2022-12-07T02:21:02;94307.59;;;5.43;100.00
8280;BME280;8335;42.646;23.380;2022-12-07T02:23:43;94273.59;;;5.28;100.00
8280;BME280;8335;42.646;23.380;2022-12-07T02:26:48;94304.97;;;5.46;100.00
8280;BME280;8335;42.646;23.380;2022-12-07T02:29:25;94303.22;;;5.48;100.00
8280;BME280;8335;42.646;23.380;2022-12-07T02:32:00;94298.97;;;5.48;100.00
8280;BME280;8335;42.646;23.380;2022-12-07T02:34:37;94291.47;;;5.47;100.00
8280;BME280;8335;42.646;23.380;2022-12-07T02:37:10;94296.53;;;5.47;100.00
8280;BME280;8335;42.646;23.380;2022-12-07T02:39:44;94283.06;;;5.46;100.00
8280;BME280;8335;42.646;23.380;2022-12-07T02:42:15;94285.53;;;5.48;100.00
8280;BME280;8335;42.646;23.380;2022-12-07T02:44:46;94282.13;;;5.49;100.00
8280;BME280;8335;42.646;23.380;2022-12-07T02:47:15;94287.97;;;5.51;100.00
8280;BME280;8335;42.646;23.380;2022-12-07T02:49:43;94282.41;;;5.41;100.00
8280;BME280;8335;42.646;23.380;2022-12-07T02:52:09;94298.84;;;5.53;100.00
8280;BME280;8335;42.646;23.380;2022-12-07T02:54:36;94293.03;;;5.51;100.00
8280;BME280;8335;42.646;23.380;2022-12-07T02:57:11;94298.91;;;5.50;100.00
8280;BME280;8335;42.646;23.380;2022-12-07T02:59:53;94296.41;;;5.50;100.00
8280;BME280;8335;42.646;23.380;2022-12-07T03:02:29;94283.06;;;5.46;100.00
8280;BME280;8335;42.646;23.380;2022-12-07T03:05:07;94278.16;;;5.43;100.00
8280;BME280;8335;42.646;23.380;2022-12-07T03:07:44;94271.41;;;5.42;100.00
8280;BME280;8335;42.646;23.380;2022-12-07T03:10:20;94227.91;;;5.12;100.00
8280;BME280;8335;42.646;23.380;2022-12-07T03:12:55;94264.91;;;5.37;100.00
8280;BME280;8335;42.646;23.380;2022-12-07T03:15:32;94260.97;;;5.30;100.00
8280;BME280;8335;42.646;23.380;2022-12-07T03:18:00;94261.81;;;5.29;100.00
8280;BME280;8335;42.646;23.380;2022-12-07T03:20:29;94258.47;;;5.28;100.00
8280;BME280;8335;42.646;23.380;2022-12-07T03:22:59;94267.13;;;5.21;100.00
8280;BME280;8335;42.646;23.380;2022-12-07T03:25:27;94264.66;;;5.19;100.00
8280;BME280;8335;42.646;23.380;2022-12-07T03:27:56;94264.84;;;5.15;100.00
8280;BME280;8335;42.646;23.380;2022-12-07T03:30:29;94262.31;;;5.15;100.00
8280;BME280;8335;42.646;23.380;2022-12-07T03:33:01;94261.44;;;5.16;100.00
8280;BME280;8335;42.646;23.380;2022-12-07T03:35:32;94258.13;;;5.14;100.00
8280;BME280;8335;42.646;23.380;2022-12-07T03:38:08;94272.50;;;5.12;100.00
8280;BME280;8335;42.646;23.380;2022-12-07T03:40:40;94260.09;;;5.06;100.00
8280;BME280;8335;42.646;23.380;2022-12-07T03:43:10;94274.34;;;5.07;100.00
8280;BME280;8335;42.646;23.380;2022-12-07T03:45:41;94269.41;;;5.04;100.00
8280;BME280;8335;42.646;23.380;2022-12-07T03:48:14;94264.22;;;5.08;100.00
8280;BME280;8335;42.646;23.380;2022-12-07T03:50:50;94266.84;;;5.05;100.00
8280;BME280;8335;42.646;23.380;2022-12-07T03:53:22;94271.94;;;5.04;100.00
8280;BME280;8335;42.646;23.380;2022-12-07T03:55:53;94262.78;;;5.01;100.00
8280;BME280;8335;42.646;23.380;2022-12-07T03:58:21;94243.75;;;4.91;100.00
8280;BME280;8335;42.646;23.380;2022-12-07T04:00:51;94251.13;;;4.97;100.00
8280;BME280;8335;42.646;23.380;2022-12-07T04:03:18;94255.41;;;4.95;100.00
8280;BME280;8335;42.646;23.380;2022-12-07T04:05:45;94255.34;;;4.96;100.00
8280;BME280;8335;42.646;23.380;2022-12-07T04:08:12;94258.63;;;4.98;100.00
8280;BME280;8335;42.646;23.380;2022-12-07T04:10:39;94253.72;;;4.95;100.00
8280;BME280;8335;42.646;23.380;2022-12-07T04:13:05;94254.75;;;4.90;100.00
8280;BME280;8335;42.646;23.380;2022-12-07T04:15:32;94253.91;;;4.89;100.00
8280;BME280;8335;42.646;23.380;2022-12-07T04:18:00;94249.63;;;4.91;100.00
8280;BME280;8335;42.646;23.380;2022-12-07T04:20:27;94248.09;;;4.87;100.00
8280;BME280;8335;42.646;23.380;2022-12-07T04:22:54;94246.34;;;4.89;100.00
8280;BME280;8335;42.646;23.380;2022-12-07T04:25:20;94242.13;;;4.90;100.00
8280;BME280;8335;42.646;23.380;2022-12-07T04:27:47;94242.25;;;4.87;100.00
8280;BME280;8335;42.646;23.380;2022-12-07T04:30:14;94256.44;;;4.89;100.00
8280;BME280;8335;42.646;23.380;2022-12-07T04:32:41;94256.38;;;4.91;100.00
8280;BME280;8335;42.646;23.380;2022-12-07T04:35:09;94252.22;;;4.90;100.00
8280;BME280;8335;42.646;23.380;2022-12-07T04:37:36;94258.13;;;4.89;100.00
8280;BME280;8335;42.646;23.380;2022-12-07T04:40:06;94254.75;;;4.90;100.00
8280;BME280;8335;42.646;23.380;2022-12-07T04:42:33;94263.03;;;4.93;100.00
8280;BME280;8335;42.646;23.380;2022-12-07T04:45:00;94264.75;;;4.93;100.00
8280;BME280;8335;42.646;23.380;2022-12-07T04:47:27;94268.94;;;4.92;100.00
8280;BME280;8335;42.646;23.380;2022-12-07T04:49:54;94258.91;;;4.91;100.00
8280;BME280;8335;42.646;23.380;2022-12-07T04:52:22;94268.94;;;4.92;100.00
8280;BME280;8335;42.646;23.380;2022-12-07T04:54:48;94267.28;;;4.91;100.00
8280;BME280;8335;42.646;23.380;2022-12-07T04:57:15;94271.50;;;4.91;100.00
8280;BME280;8335;42.646;23.380;2022-12-07T04:59:42;94265.75;;;4.87;100.00
8280;BME280;8335;42.646;23.380;2022-12-07T05:02:09;94269.16;;;4.86;100.00
8280;BME280;8335;42.646;23.380;2022-12-07T05:04:35;94262.50;;;4.84;100.00
8280;BME280;8335;42.646;23.380;2022-12-07T05:07:02;94255.88;;;4.81;100.00
8280;BME280;8335;42.646;23.380;2022-12-07T05:09:30;94262.69;;;4.79;100.00
8280;BME280;8335;42.646;23.380;2022-12-07T05:11:57;94262.69;;;4.78;100.00
8280;BME280;8335;42.646;23.380;2022-12-07T05:14:24;94257.66;;;4.78;100.00
8280;BME280;8335;42.646;23.380;2022-12-07T05:16:51;94262.81;;;4.75;100.00
8280;BME280;8335;42.646;23.380;2022-12-07T05:19:19;94269.63;;;4.73;100.00
8280;BME280;8335;42.646;23.380;2022-12-07T05:21:46;94264.78;;;4.66;100.00
8280;BME280;8335;42.646;23.380;2022-12-07T05:24:14;94271.59;;;4.63;100.00
8280;BME280;8335;42.646;23.380;2022-12-07T05:26:44;94268.19;;;4.64;100.00
8280;BME280;8335;42.646;23.380;2022-12-07T05:29:11;94268.25;;;4.62;100.00
8280;BME280;8335;42.646;23.380;2022-12-07T05:31:38;94263.25;;;4.61;100.00
8280;BME280;8335;42.646;23.380;2022-12-07T05:34:06;94261.75;;;4.55;100.00
8280;BME280;8335;42.646;23.380;2022-12-07T05:36:32;94271.91;;;4.54;100.00
8280;BME280;8335;42.646;23.380;2022-12-07T05:38:59;94279.47;;;4.54;100.00
8280;BME280;8335;42.646;23.380;2022-12-07T05:41:26;94268.56;;;4.53;100.00
8280;BME280;8335;42.646;23.380;2022-12-07T05:44:12;94258.34;;;4.56;100.00
8280;BME280;8335;42.646;23.380;2022-12-07T05:46:38;94255.06;;;4.54;100.00
8280;BME280;8335;42.646;23.380;2022-12-07T05:49:05;94259.09;;;4.60;100.00
8280;BME280;8335;42.646;23.380;2022-12-07T05:51:32;94254.81;;;4.62;100.00
8280;BME280;8335;42.646;23.380;2022-12-07T05:53:59;94259.88;;;4.62;100.00
8280;BME280;8335;42.646;23.380;2022-12-07T05:56:25;94259.81;;;4.63;100.00
8280;BME280;8335;42.646;23.380;2022-12-07T05:58:53;94248.81;;;4.66;100.00
8280;BME280;8335;42.646;23.380;2022-12-07T06:01:38;94258.22;;;4.61;100.00
8280;BME280;8335;42.646;23.380;2022-12-07T06:04:05;94257.53;;;4.56;100.00
8280;BME280;8335;42.646;23.380;2022-12-07T06:06:32;94249.94;;;4.57;100.00
8280;BME280;8335;42.646;23.380;2022-12-07T06:08:58;94254.75;;;4.65;100.00
8280;BME280;8335;42.646;23.380;2022-12-07T06:11:25;94252.41;;;4.59;100.00
8280;BME280;8335;42.646;23.380;2022-12-07T06:14:09;94244.22;;;4.52;100.00
8280;BME280;8335;42.646;23.380;2022-12-07T06:16:38;94254.75;;;4.65;100.00
8280;BME280;8335;42.646;23.380;2022-12-07T06:19:05;94257.00;;;4.73;100.00
8280;BME280;8335;42.646;23.380;2022-12-07T06:21:32;94256.81;;;4.79;100.00
8280;BME280;8335;42.646;23.380;2022-12-07T06:23:58;94264.13;;;4.86;100.00
8280;BME280;8335;42.646;23.380;2022-12-07T06:26:25;94262.94;;;4.96;100.00
8280;BME280;8335;42.646;23.380;2022-12-07T06:28:52;94265.13;;;5.06;100.00
8280;BME280;8335;42.646;23.380;2022-12-07T06:31:20;94266.69;;;5.10;100.00
8280;BME280;8335;42.646;23.380;2022-12-07T06:33:48;94274.53;;;5.25;100.00
8280;BME280;8335;42.646;23.380;2022-12-07T06:36:15;94278.34;;;5.37;100.00
8280;BME280;8335;42.646;23.380;2022-12-07T06:38:42;94265.47;;;5.45;100.00
8280;BME280;8335;42.646;23.380;2022-12-07T06:41:10;94271.66;;;5.60;100.00
8280;BME280;8335;42.646;23.380;2022-12-07T06:43:36;94271.25;;;5.70;100.00
8280;BME280;8335;42.646;23.380;2022-12-07T06:46:04;94270.00;;;5.82;100.00
8280;BME280;8335;42.646;23.380;2022-12-07T06:48:30;94277.16;;;5.94;100.00
8280;BME280;8335;42.646;23.380;2022-12-07T06:50:58;94278.50;;;6.03;100.00
8280;BME280;8335;42.646;23.380;2022-12-07T06:53:25;94283.22;;;6.12;100.00
8280;BME280;8335;42.646;23.380;2022-12-07T06:55:52;94269.69;;;6.13;100.00
8280;BME280;8335;42.646;23.380;2022-12-07T06:58:19;94280.28;;;6.23;100.00
8280;BME280;8335;42.646;23.380;2022-12-07T07:00:47;94273.31;;;6.29;100.00
8280;BME280;8335;42.646;23.380;2022-12-07T07:03:14;94278.81;;;6.39;100.00
8280;BME280;8335;42.646;23.380;2022-12-07T07:05:41;94285.97;;;6.50;100.00
8280;BME280;8335;42.646;23.380;2022-12-07T07:08:09;94277.38;;;6.54;100.00
8280;BME280;8335;42.646;23.380;2022-12-07T07:10:37;94271.91;;;6.65;100.00
8280;BME280;8335;42.646;23.380;2022-12-07T07:13:04;94280.03;;;6.73;100.00
8280;BME280;8335;42.646;23.380;2022-12-07T07:15:31;94277.69;;;6.88;100.00
8280;BME280;8335;42.646;23.380;2022-12-07T07:17:59;94279.16;;;6.94;100.00
8280;BME280;8335;42.646;23.380;2022-12-07T07:20:26;94288.00;;;7.04;100.00
8280;BME280;8335;42.646;23.380;2022-12-07T07:22:53;94288.63;;;7.09;100.00
8280;BME280;8335;42.646;23.380;2022-12-07T07:25:22;94289.28;;;7.14;100.00
8280;BME280;8335;42.646;23.380;2022-12-07T07:27:49;94291.41;;;7.03;100.00
8280;BME280;8335;42.646;23.380;2022-12-07T07:30:16;94290.03;;;6.96;100.00
8280;BME280;8335;42.646;23.380;2022-12-07T07:32:42;94288.72;;;7.08;100.00
8280;BME280;8335;42.646;23.380;2022-12-07T07:35:09;94272.16;;;6.99;100.00
8280;BME280;8335;42.646;23.380;2022-12-07T07:37:36;94296.22;;;7.30;100.00
8280;BME280;8335;42.646;23.380;2022-12-07T07:40:03;94302.34;;;7.44;100.00
8280;BME280;8335;42.646;23.380;2022-12-07T07:42:31;94303.41;;;7.59;100.00
8280;BME280;8335;42.646;23.380;2022-12-07T07:44:58;94297.66;;;7.75;100.00
8280;BME280;8335;42.646;23.380;2022-12-07T07:47:25;94298.88;;;7.85;100.00
8280;BME280;8335;42.646;23.380;2022-12-07T07:49:52;94299.06;;;8.00;100.00
8280;BME280;8335;42.646;23.380;2022-12-07T07:52:18;94274.91;;;8.11;100.00
8280;BME280;8335;42.646;23.380;2022-12-07T07:54:45;94290.88;;;8.50;100.00
8280;BME280;8335;42.646;23.380;2022-12-07T07:57:12;94292.72;;;8.64;100.00
8280;BME280;8335;42.646;23.380;2022-12-07T07:59:40;94295.09;;;8.86;100.00
8280;BME280;8335;42.646;23.380;2022-12-07T08:02:09;94292.34;;;9.08;100.00
8280;BME280;8335;42.646;23.380;2022-12-07T08:04:38;94303.59;;;9.37;100.00
8280;BME280;8335;42.646;23.380;2022-12-07T08:07:05;94301.22;;;9.67;100.00
8280;BME280;8335;42.646;23.380;2022-12-07T08:09:32;94304.63;;;9.99;100.00
8280;BME280;8335;42.646;23.380;2022-12-07T08:11:58;94302.56;;;10.06;100.00
8280;BME280;8335;42.646;23.380;2022-12-07T08:14:26;94304.22;;;10.07;100.00
8280;BME280;8335;42.646;23.380;2022-12-07T08:16:55;94307.66;;;10.23;100.00
8280;BME280;8335;42.646;23.380;2022-12-07T08:19:22;94304.59;;;10.32;100.00
8280;BME280;8335;42.646;23.380;2022-12-07T08:21:49;94301.66;;;10.24;100.00
8280;BME280;8335;42.646;23.380;2022-12-07T08:24:15;94307.63;;;10.39;100.00
8280;BME280;8335;42.646;23.380;2022-12-07T08:26:42;94303.13;;;10.44;100.00
8280;BME280;8335;42.646;23.380;2022-12-07T08:29:09;94303.53;;;10.52;100.00
8280;BME280;8335;42.646;23.380;2022-12-07T08:31:36;94297.09;;;10.61;100.00
8280;BME280;8335;42.646;23.380;2022-12-07T08:34:04;94302.03;;;10.80;100.00
8280;BME280;8335;42.646;23.380;2022-12-07T08:36:31;94298.00;;;11.06;100.00
8280;BME280;8335;42.646;23.380;2022-12-07T08:38:57;94298.78;;;11.22;100.00
8280;BME280;8335;42.646;23.380;2022-12-07T08:41:31;94292.78;;;11.23;100.00
8280;BME280;8335;42.646;23.380;2022-12-07T08:43:58;94296.97;;;11.38;99.90
8280;BME280;8335;42.646;23.380;2022-12-07T08:46:26;94293.16;;;11.45;99.18
8280;BME280;8335;42.646;23.380;2022-12-07T08:49:01;94293.41;;;11.26;99.06
8280;BME280;8335;42.646;23.380;2022-12-07T08:51:29;94290.03;;;11.26;98.98
8280;BME280;8335;42.646;23.380;2022-12-07T08:53:58;94294.22;;;11.27;99.42
8280;BME280;8335;42.646;23.380;2022-12-07T08:56:27;94294.56;;;11.21;99.21
8280;BME280;8335;42.646;23.380;2022-12-07T08:58:54;94283.97;;;10.98;100.00
8280;BME280;8335;42.646;23.380;2022-12-07T09:01:21;94277.75;;;10.88;100.00
8280;BME280;8335;42.646;23.380;2022-12-07T09:03:47;94269.38;;;10.86;100.00
8280;BME280;8335;42.646;23.380;2022-12-07T09:06:14;94250.22;;;10.65;100.00
8280;BME280;8335;42.646;23.380;2022-12-07T09:08:46;94273.28;;;10.62;100.00
8280;BME280;8335;42.646;23.380;2022-12-07T09:11:13;94270.09;;;10.58;100.00
8280;BME280;8335;42.646;23.380;2022-12-07T09:13:40;94263.94;;;10.46;100.00
8280;BME280;8335;42.646;23.380;2022-12-07T09:16:07;94268.88;;;10.34;100.00
8280;BME280;8335;42.646;23.380;2022-12-07T09:18:34;94273.06;;;10.35;100.00
8280;BME280;8335;42.646;23.380;2022-12-07T09:21:00;94263.16;;;10.30;100.00
8280;BME280;8335;42.646;23.380;2022-12-07T09:23:27;94261.75;;;10.25;100.00
8280;BME280;8335;42.646;23.380;2022-12-07T09:25:59;94257.69;;;10.20;100.00
8280;BME280;8335;42.646;23.380;2022-12-07T09:28:25;94249.19;;;10.22;100.00
8280;BME280;8335;42.646;23.380;2022-12-07T09:30:52;94235.22;;;10.13;100.00
8280;BME280;8335;42.646;23.380;2022-12-07T09:33:19;94254.00;;;10.10;100.00
8280;BME280;8335;42.646;23.380;2022-12-07T09:35:46;94260.09;;;10.08;100.00
8280;BME280;8335;42.646;23.380;2022-12-07T09:38:13;94246.78;;;10.03;100.00
8280;BME280;8335;42.646;23.380;2022-12-07T09:40:40;94240.47;;;10.10;100.00
8280;BME280;8335;42.646;23.380;2022-12-07T09:43:13;94240.97;;;10.01;100.00
8280;BME280;8335;42.646;23.380;2022-12-07T09:45:41;94230.94;;;9.98;100.00
8280;BME280;8335;42.646;23.380;2022-12-07T09:48:15;94224.81;;;10.02;100.00
8280;BME280;8335;42.646;23.380;2022-12-07T09:50:43;94227.44;;;10.00;100.00
8280;BME280;8335;42.646;23.380;2022-12-07T09:53:14;94229.91;;;10.02;100.00
8280;BME280;8335;42.646;23.380;2022-12-07T09:55:42;94228.91;;;10.04;100.00
8280;BME280;8335;42.646;23.380;2022-12-07T09:58:17;94230.63;;;10.04;100.00
8280;BME280;8335;42.646;23.380;2022-12-07T10:00:45;94216.91;;;9.90;100.00
8280;BME280;8335;42.646;23.380;2022-12-07T10:03:12;94222.50;;;9.97;100.00
8280;BME280;8335;42.646;23.380;2022-12-07T10:05:42;94224.47;;;10.08;100.00
8280;BME280;8335;42.646;23.380;2022-12-07T10:08:12;94212.34;;;10.29;100.00
8280;BME280;8335;42.646;23.380;2022-12-07T10:10:39;94200.75;;;10.39;100.00
8280;BME280;8335;42.646;23.380;2022-12-07T10:13:08;94202.63;;;10.51;100.00
8280;BME280;8335;42.646;23.380;2022-12-07T10:15:45;94204.78;;;10.57;100.00
8280;BME280;8335;42.646;23.380;2022-12-07T10:18:27;94197.34;;;10.54;100.00
8280;BME280;8335;42.646;23.380;2022-12-07T10:21:03;94198.16;;;10.25;100.00
8280;BME280;8335;42.646;23.380;2022-12-07T10:23:30;94188.19;;;10.04;100.00
8280;BME280;8335;42.646;23.380;2022-12-07T10:25:57;94195.25;;;9.99;100.00
8280;BME280;8335;42.646;23.380;2022-12-07T10:28:33;94189.59;;;10.10;100.00
8280;BME280;8335;42.646;23.380;2022-12-07T10:31:15;94187.16;;;10.24;100.00
8280;BME280;8335;42.646;23.380;2022-12-07T10:33:49;94184.94;;;10.48;100.00
8280;BME280;8335;42.646;23.380;2022-12-07T10:36:19;94175.56;;;10.79;100.00
8280;BME280;8335;42.646;23.380;2022-12-07T10:38:48;94178.16;;;11.07;100.00
8280;BME280;8335;42.646;23.380;2022-12-07T10:41:15;94173.25;;;11.18;100.00
8280;BME280;8335;42.646;23.380;2022-12-07T10:43:50;94182.81;;;11.15;100.00
8280;BME280;8335;42.646;23.380;2022-12-07T10:52:48;94168.88;;;11.06;100.00
8280;BME280;8335;42.646;23.380;2022-12-07T10:55:22;94162.69;;;11.10;100.00
8280;BME280;8335;42.646;23.380;2022-12-07T10:57:58;94143.59;;;11.17;100.00
8280;BME280;8335;42.646;23.380;2022-12-07T11:00:35;94146.75;;;11.21;100.00
8280;BME280;8335;42.646;23.380;2022-12-07T11:03:34;94140.03;;;11.20;100.00
8280;BME280;8335;42.646;23.380;2022-12-07T11:06:13;94123.66;;;11.24;100.00
8280;BME280;8335;42.646;23.380;2022-12-07T11:08:52;94136.22;;;11.13;100.00
8280;BME280;8335;42.646;23.380;2022-12-07T11:11:28;94133.19;;;11.06;100.00
8280;BME280;8335;42.646;23.380;2022-12-07T11:14:03;94126.19;;;10.67;100.00
8280;BME280;8335;42.646;23.380;2022-12-07T11:16:48;94132.44;;;10.61;100.00
8280;BME280;8335;42.646;23.380;2022-12-07T11:19:27;94130.00;;;10.60;100.00
8280;BME280;8335;42.646;23.380;2022-12-07T11:21:58;94137.56;;;10.75;100.00
8280;BME280;8335;42.646;23.380;2022-12-07T11:24:29;94127.13;;;10.80;100.00
8280;BME280;8335;42.646;23.380;2022-12-07T11:27:17;94121.19;;;10.65;100.00
8280;BME280;8335;42.646;23.380;2022-12-07T11:30:02;94127.44;;;10.60;100.00
8280;BME280;8335;42.646;23.380;2022-12-07T11:32:49;94096.91;;;10.60;100.00
8280;BME280;8335;42.646;23.380;2022-12-07T11:35:24;94093.78;;;10.55;100.00
8280;BME280;8335;42.646;23.380;2022-12-07T11:37:57;94105.69;;;10.54;100.00
8280;BME280;8335;42.646;23.380;2022-12-07T11:40:28;94104.63;;;10.58;100.00
8280;BME280;8335;42.646;23.380;2022-12-07T11:43:03;94094.25;;;10.61;100.00
8280;BME280;8335;42.646;23.380;2022-12-07T11:45:34;94093.91;;;10.67;100.00
8280;BME280;8335;42.646;23.380;2022-12-07T11:48:03;94075.16;;;10.68;100.00
8280;BME280;8335;42.646;23.380;2022-12-07T11:50:36;94091.38;;;10.82;100.00
8280;BME280;8335;42.646;23.380;2022-12-07T11:53:10;94091.25;;;10.83;100.00
8280;BME280;8335;42.646;23.380;2022-12-07T11:55:43;94075.63;;;10.75;100.00
8280;BME280;8335;42.646;23.380;2022-12-07T11:58:20;94080.81;;;10.73;100.00
8280;BME280;8335;42.646;23.380;2022-12-07T12:00:52;94081.44;;;10.63;100.00
8280;BME280;8335;42.646;23.380;2022-12-07T12:03:28;94081.97;;;10.54;100.00
8280;BME280;8335;42.646;23.380;2022-12-07T12:05:57;94075.25;;;10.53;100.00
8280;BME280;8335;42.646;23.380;2022-12-07T12:08:29;94068.16;;;10.43;100.00
8280;BME280;8335;42.646;23.380;2022-12-07T12:11:03;94072.47;;;10.27;100.00
8280;BME280;8335;42.646;23.380;2022-12-07T12:14:10;94067.66;;;10.23;100.00
8280;BME280;8335;42.646;23.380;2022-12-07T12:17:02;94064.22;;;10.24;100.00
8280;BME280;8335;42.646;23.380;2022-12-07T12:19:35;94053.44;;;10.18;100.00
8280;BME280;8335;42.646;23.380;2022-12-07T12:22:10;94052.31;;;10.24;100.00
8280;BME280;8335;42.646;23.380;2022-12-07T12:24:41;94039.56;;;10.24;100.00
8280;BME280;8335;42.646;23.380;2022-12-07T12:27:17;94056.28;;;10.28;100.00
8280;BME280;8335;42.646;23.380;2022-12-07T12:29:52;94054.88;;;10.38;100.00
8280;BME280;8335;42.646;23.380;2022-12-07T12:32:21;94051.31;;;10.41;100.00
8280;BME280;8335;42.646;23.380;2022-12-07T12:35:01;94041.78;;;10.44;100.00
8280;BME280;8335;42.646;23.380;2022-12-07T12:37:44;94043.22;;;10.48;100.00
8280;BME280;8335;42.646;23.380;2022-12-07T12:40:44;94034.81;;;10.18;100.00
8280;BME280;8335;42.646;23.380;2022-12-07T12:43:49;94030.97;;;10.11;100.00
8280;BME280;8335;42.646;23.380;2022-12-07T12:46:48;94029.56;;;9.91;100.00
8280;BME280;8335;42.646;23.380;2022-12-07T12:49:37;94018.72;;;9.73;100.00
8280;BME280;8335;42.646;23.380;2022-12-07T12:55:13;94025.72;;;9.84;100.00
8280;BME280;8335;42.646;23.380;2022-12-07T12:57:45;94032.13;;;10.05;100.00
8280;BME280;8335;42.646;23.380;2022-12-07T13:00:17;94031.97;;;10.08;100.00
8280;BME280;8335;42.646;23.380;2022-12-07T13:02:49;94031.25;;;10.20;100.00
8280;BME280;8335;42.646;23.380;2022-12-07T13:05:18;94011.28;;;10.14;100.00
8280;BME280;8335;42.646;23.380;2022-12-07T13:07:58;94029.50;;;10.37;100.00
8280;BME280;8335;42.646;23.380;2022-12-07T13:10:36;94024.59;;;10.48;100.00
8280;BME280;8335;42.646;23.380;2022-12-07T13:13:34;94013.44;;;10.51;100.00
8280;BME280;8335;42.646;23.380;2022-12-07T13:22:50;94027.00;;;10.65;100.00
8280;BME280;8335;42.646;23.380;2022-12-07T13:25:41;94034.63;;;10.65;100.00
8280;BME280;8335;42.646;23.380;2022-12-07T13:28:16;94035.16;;;10.70;100.00
8280;BME280;8335;42.646;23.380;2022-12-07T13:30:54;94038.59;;;10.69;100.00
8280;BME280;8335;42.646;23.380;2022-12-07T13:33:27;94031.88;;;10.68;100.00
8280;BME280;8335;42.646;23.380;2022-12-07T13:35:56;93956.66;;;10.20;100.00
8280;BME280;8335;42.646;23.380;2022-12-07T13:38:28;94026.25;;;10.63;100.00
8280;BME280;8335;42.646;23.380;2022-12-07T13:41:03;94030.59;;;10.61;100.00
8280;BME280;8335;42.646;23.380;2022-12-07T13:43:31;94011.41;;;10.56;100.00